TimeEST,TemperatureF,Dew PointF,Humidity,Sea Level PressureIn,VisibilityMPH,Wind Direction,Wind SpeedMPH,Gust SpeedMPH,PrecipitationIn,Events,Conditions,WindDirDegrees,DateUTC
12:53 AM,28.0,21.0,75,30.10,9.0,South,12.7,-,N/A,,Clear,170,2012-12-31 05:53:00
1:53 AM,28.9,21.0,72,30.06,10.0,South,12.7,-,N/A,,Clear,190,2012-12-31 06:53:00
2:53 AM,30.0,21.9,72,30.04,10.0,South,10.4,-,N/A,,Clear,190,2012-12-31 07:53:00
3:53 AM,30.9,23.0,72,30.03,10.0,South,10.4,-,N/A,,Clear,190,2012-12-31 08:53:00
4:53 AM,36.0,28.0,73,30.00,10.0,SW,16.1,27.6,N/A,,Clear,220,2012-12-31 09:53:00
5:53 AM,37.0,28.0,70,30.00,10.0,WSW,24.2,36.8,0.02,,Clear,240,2012-12-31 10:53:00
6:53 AM,37.0,28.0,70,29.99,10.0,WSW,23.0,31.1,N/A,,Clear,250,2012-12-31 11:53:00
7:53 AM,37.9,27.0,65,29.98,10.0,West,19.6,33.4,N/A,,Mostly Cloudy,260,2012-12-31 12:53:00
8:34 AM,37.4,26.6,65,29.95,10.0,West,21.9,29.9,N/A,,Overcast,260,2012-12-31 13:34:00
8:53 AM,37.9,27.0,65,29.98,10.0,West,18.4,31.1,N/A,,Mostly Cloudy,260,2012-12-31 13:53:00
9:53 AM,37.9,27.0,65,29.99,10.0,West,17.3,26.5,N/A,,Mostly Cloudy,260,2012-12-31 14:53:00
10:53 AM,37.0,27.0,67,30.01,10.0,West,15.0,20.7,N/A,,Overcast,270,2012-12-31 15:53:00
11:53 AM,37.0,27.0,67,29.99,10.0,West,15.0,19.6,N/A,,Overcast,280,2012-12-31 16:53:00
12:53 PM,36.0,26.1,67,29.98,10.0,WNW,9.2,-,N/A,,Overcast,290,2012-12-31 17:53:00
1:53 PM,34.0,26.1,73,29.98,10.0,WNW,10.4,19.6,N/A,,Overcast,300,2012-12-31 18:53:00
2:53 PM,33.1,26.1,75,29.99,9.0,WNW,10.4,16.1,N/A,,Overcast,290,2012-12-31 19:53:00
3:08 PM,33.8,24.8,70,29.97,8.0,WNW,8.1,-,N/A,,Overcast,290,2012-12-31 20:08:00
3:53 PM,32.0,25.0,75,30.01,8.0,WNW,9.2,-,N/A,,Overcast,300,2012-12-31 20:53:00
4:53 PM,30.9,24.1,76,30.02,8.0,WNW,11.5,-,N/A,,Overcast,300,2012-12-31 21:53:00
5:43 PM,30.2,21.2,69,30.01,10.0,NW,9.2,-,N/A,,Overcast,310,2012-12-31 22:43:00
5:53 PM,30.0,21.9,72,30.03,10.0,NW,8.1,16.1,N/A,,Overcast,310,2012-12-31 22:53:00
6:53 PM,30.0,21.0,69,30.05,10.0,NW,9.2,18.4,N/A,,Overcast,310,2012-12-31 23:53:00
7:53 PM,28.9,19.9,69,30.05,10.0,WNW,10.4,-,N/A,,Overcast,300,2013-01-01 00:53:00
8:53 PM,28.9,19.0,67,30.07,10.0,NW,10.4,16.1,N/A,,Overcast,310,2013-01-01 01:53:00
9:53 PM,28.9,18.0,64,30.07,10.0,North,3.5,-,N/A,,Overcast,350,2013-01-01 02:53:00
10:10 PM,28.4,17.6,64,30.05,10.0,Variable,5.8,-,N/A,,Overcast,0,2013-01-01 03:10:00
11:01 PM,28.4,15.8,59,30.05,10.0,Calm,Calm,-,N/A,,Overcast,0,2013-01-01 04:01:00
11:53 PM,28.0,16.0,61,30.09,10.0,NNE,3.5,-,N/A,,Overcast,30,2013-01-01 04:53:00